createdAt,value
2023-07-20T00:01:26.831Z,99888.03
2023-07-20T00:04:17.356Z,99900.00
2023-07-20T00:07:07.009Z,99898.16
2023-07-20T00:09:55.777Z,99904.78
2023-07-20T00:12:48.107Z,99900.69
2023-07-20T00:15:37.243Z,99897.53
2023-07-20T00:18:25.921Z,99890.31
2023-07-20T00:21:18.863Z,99889.22
2023-07-20T00:24:08.049Z,99885.66
2023-07-20T00:26:56.794Z,99891.44
2023-07-20T00:29:45.930Z,99891.81
2023-07-20T00:32:34.672Z,99889.38
2023-07-20T00:35:23.393Z,99891.81
2023-07-20T00:38:13.660Z,99887.72
2023-07-20T00:41:02.417Z,99896.38
2023-07-20T00:43:51.884Z,99902.53
2023-07-20T00:46:42.836Z,99901.72
2023-07-20T00:49:32.073Z,99896.59
2023-07-20T00:52:21.555Z,99905.88
2023-07-20T00:55:12.088Z,99900.09
2023-07-20T00:58:01.920Z,99894.75
2023-07-20T01:00:50.656Z,99893.53
2023-07-20T01:03:39.815Z,99900.53
2023-07-20T01:06:36.669Z,99894.28
2023-07-20T01:09:31.207Z,99899.19
2023-07-20T01:12:28.958Z,99897.53
2023-07-20T01:15:17.772Z,99894.41
2023-07-20T01:18:06.690Z,99901.41
2023-07-20T01:21:01.967Z,99906.75
2023-07-20T01:24:19.276Z,99912.69
2023-07-20T01:27:55.118Z,99913.75
2023-07-20T01:31:02.221Z,99919.72
2023-07-20T01:33:54.728Z,99920.75
2023-07-20T01:36:45.204Z,99909.44
2023-07-20T01:39:34.925Z,99918.78
2023-07-20T01:42:25.082Z,99914.69
2023-07-20T01:45:13.923Z,99920.63
2023-07-20T01:48:02.665Z,99919.44
2023-07-20T01:50:52.767Z,99903.78
2023-07-20T01:53:41.418Z,99909.16
2023-07-20T01:56:30.177Z,99910.66
2023-07-20T01:59:19.170Z,99911.72
2023-07-20T02:02:07.929Z,99911.50
2023-07-20T02:04:56.648Z,99922.44
2023-07-20T02:07:46.725Z,99902.25
2023-07-20T02:10:35.421Z,99909.47
2023-07-20T02:13:24.085Z,99907.25
2023-07-20T02:16:13.047Z,99905.16
2023-07-20T02:19:01.747Z,99913.03
2023-07-20T02:21:50.418Z,99908.59
2023-07-20T02:24:40.534Z,99916.72
2023-07-20T02:27:29.186Z,99916.91
2023-07-20T02:30:18.761Z,99916.13
2023-07-20T02:33:07.643Z,99916.19
2023-07-20T02:35:56.510Z,99917.84
2023-07-20T02:38:45.285Z,99917.00
2023-07-20T02:41:36.176Z,99912.47
2023-07-20T02:44:25.208Z,99919.47
2023-07-20T02:47:14.750Z,99916.19
2023-07-20T02:50:03.526Z,99914.53
2023-07-20T02:52:52.408Z,99925.25
2023-07-20T02:55:41.144Z,99923.47
2023-07-20T02:58:31.213Z,99936.41
2023-07-20T03:01:19.998Z,99941.78
2023-07-20T03:04:09.020Z,99936.41
2023-07-20T03:06:57.784Z,99940.16
2023-07-20T03:09:46.501Z,99940.97
2023-07-20T03:12:35.833Z,99938.97
2023-07-20T03:15:25.945Z,99952.34
2023-07-20T03:18:14.732Z,99947.00
2023-07-20T03:21:03.547Z,99948.84
2023-07-20T03:23:52.228Z,99952.56
2023-07-20T03:26:41.072Z,99948.47
2023-07-20T03:29:29.841Z,99943.72
2023-07-20T03:32:19.992Z,99959.56
2023-07-20T03:35:09.774Z,99950.13
2023-07-20T03:37:58.541Z,99959.03
2023-07-20T03:40:53.916Z,99955.91
2023-07-20T03:43:42.685Z,99958.00
2023-07-20T03:46:31.376Z,99955.91
2023-07-20T03:49:21.556Z,99954.28
2023-07-20T03:52:10.386Z,99952.66
2023-07-20T03:54:59.171Z,99952.25
2023-07-20T03:57:47.977Z,99954.94
2023-07-20T04:00:37.008Z,99957.41
2023-07-20T04:03:27.498Z,99953.09
2023-07-20T04:06:18.702Z,99953.97
2023-07-20T04:09:07.355Z,99961.41
2023-07-20T04:11:56.276Z,99956.09
2023-07-20T04:14:45.085Z,99957.78
2023-07-20T04:17:34.044Z,99961.69
2023-07-20T04:20:23.387Z,99964.34
2023-07-20T04:23:13.799Z,99962.91
2023-07-20T04:26:02.946Z,99961.44
2023-07-20T04:28:52.768Z,99962.69
2023-07-20T04:31:41.453Z,99968.06
2023-07-20T04:34:30.135Z,99970.94
2023-07-20T04:37:18.852Z,99967.66
2023-07-20T04:40:10.740Z,99971.34
2023-07-20T04:42:59.407Z,99964.03
2023-07-20T04:45:48.666Z,99964.41
2023-07-20T04:48:37.524Z,99964.47
2023-07-20T04:51:26.250Z,99967.06
2023-07-20T04:54:15.038Z,99963.16
2023-07-20T04:57:06.227Z,99965.59
2023-07-20T04:59:55.083Z,99969.72
2023-07-20T05:02:43.830Z,99968.84
2023-07-20T05:05:32.711Z,99975.25
2023-07-20T05:08:23.316Z,99978.31
2023-07-20T05:11:12.133Z,99978.69
2023-07-20T05:14:02.434Z,99982.16
2023-07-20T05:16:51.319Z,99979.88
2023-07-20T05:19:41.414Z,99979.88
2023-07-20T05:22:32.123Z,99983.16
2023-07-20T05:25:23.746Z,99977.47
2023-07-20T05:28:12.721Z,99977.34
2023-07-20T05:31:05.385Z,99977.56
2023-07-20T05:33:54.689Z,99979.28
2023-07-20T05:36:43.343Z,99973.53
2023-07-20T05:39:32.033Z,99977.03
2023-07-20T05:42:20.776Z,99981.25
2023-07-20T05:45:10.223Z,99981.41
2023-07-20T05:48:00.379Z,99976.50
2023-07-20T05:50:49.196Z,99981.63
2023-07-20T05:53:39.090Z,99982.31
2023-07-20T05:56:27.804Z,99986.69
2023-07-20T05:59:16.649Z,99992.22
2023-07-20T06:02:05.647Z,99988.56
2023-07-20T06:04:55.818Z,99998.28
2023-07-20T06:07:44.522Z,99990.75
2023-07-20T06:10:33.139Z,100002.69
2023-07-20T06:13:21.848Z,100005.31
2023-07-20T06:16:10.538Z,100010.72
2023-07-20T06:18:59.445Z,100004.34
2023-07-20T06:21:50.652Z,100007.59
2023-07-20T06:24:39.311Z,100012.50
2023-07-20T06:27:29.400Z,100005.56
2023-07-20T06:30:20.438Z,100007.66
2023-07-20T06:33:10.465Z,100015.53
2023-07-20T06:36:01.128Z,100015.16
2023-07-20T06:41:43.365Z,100019.66
2023-07-20T06:44:32.310Z,100022.53
2023-07-20T06:47:23.251Z,100024.53
2023-07-20T06:50:17.510Z,100027.84
2023-07-20T06:53:07.146Z,100033.59
2023-07-20T06:55:58.138Z,100035.28
2023-07-20T06:58:46.820Z,100043.47
2023-07-20T07:01:35.800Z,100040.63
2023-07-20T07:04:24.976Z,100030.78
2023-07-20T07:07:13.749Z,100034.28
2023-07-20T07:10:05.217Z,100032.66
2023-07-20T07:12:55.618Z,100033.84
2023-07-20T07:15:45.712Z,100036.13
2023-07-20T07:18:36.229Z,100035.28
2023-07-20T07:21:26.809Z,100042.63
2023-07-20T07:24:19.987Z,100033.50
2023-07-20T07:27:09.541Z,100044.13
2023-07-20T07:29:59.751Z,100040.16
2023-07-20T07:32:48.552Z,100044.16
2023-07-20T07:35:37.458Z,100044.72
2023-07-20T07:41:20.376Z,100044.22
2023-07-20T07:44:09.276Z,100046.25
2023-07-20T07:46:59.676Z,100040.22
2023-07-20T07:49:48.498Z,100039.53
2023-07-20T07:52:37.575Z,100043.81
2023-07-20T07:55:27.735Z,100050.16
2023-07-20T07:58:18.726Z,100060.81
2023-07-20T08:01:07.961Z,100048.38
2023-07-20T08:03:58.540Z,100040.69
2023-07-20T08:06:47.712Z,100035.97
2023-07-20T08:09:37.872Z,100031.53
2023-07-20T08:12:26.616Z,100031.34
2023-07-20T08:15:15.928Z,100034.59
2023-07-20T08:18:05.499Z,100050.06
2023-07-20T08:20:55.971Z,100033.75
2023-07-20T08:23:44.788Z,100036.66
2023-07-20T08:26:34.185Z,100049.59
2023-07-20T08:29:23.069Z,100044.03
2023-07-20T08:32:12.113Z,100039.50
2023-07-20T08:35:01.016Z,100043.56
2023-07-20T08:37:51.303Z,100043.34
2023-07-20T08:40:43.474Z,100039.63
2023-07-20T08:43:34.059Z,100037.31
2023-07-20T08:46:23.801Z,100034.66
2023-07-20T08:49:13.951Z,100035.25
2023-07-20T08:52:04.128Z,100047.59
2023-07-20T08:54:55.682Z,100040.53
2023-07-20T08:57:48.600Z,100049.59
2023-07-20T09:00:40.109Z,100046.25
2023-07-20T09:03:29.748Z,100044.97
2023-07-20T09:06:20.227Z,100052.81
2023-07-20T09:09:09.306Z,100046.38
2023-07-20T09:11:59.532Z,100049.91
2023-07-20T09:14:48.286Z,100044.53
2023-07-20T09:17:37.933Z,100045.34
2023-07-20T09:20:26.802Z,100042.44
2023-07-20T09:23:16.079Z,100031.72
2023-07-20T09:26:13.550Z,100042.00
2023-07-20T09:29:03.730Z,100040.34
2023-07-20T09:32:02.981Z,100042.81
2023-07-20T09:34:54.333Z,100040.50
2023-07-20T09:37:43.575Z,100044.84
2023-07-20T09:43:26.031Z,100056.59
2023-07-20T09:46:59.271Z,100059.28
2023-07-20T09:49:30.720Z,100054.28
2023-07-20T09:55:13.065Z,100055.56
2023-07-20T09:58:03.023Z,100050.78
2023-07-20T10:00:55.182Z,100066.88
2023-07-20T10:03:48.428Z,100072.06
2023-07-20T10:06:38.469Z,100083.63
2023-07-20T10:09:28.614Z,100073.72
2023-07-20T10:12:18.825Z,100067.16
2023-07-20T10:15:14.483Z,100070.22
2023-07-20T10:18:07.669Z,100064.66
2023-07-20T10:23:52.780Z,100071.28
2023-07-20T10:26:42.492Z,100069.31
2023-07-20T10:29:32.695Z,100066.41
2023-07-20T10:32:22.642Z,100069.09
2023-07-20T10:35:21.224Z,100073.41
2023-07-20T10:38:11.407Z,100070.38
2023-07-20T10:41:00.503Z,100065.97
2023-07-20T10:43:50.191Z,100062.69
2023-07-20T10:46:47.794Z,100052.13
2023-07-20T10:49:38.206Z,100062.84
2023-07-20T10:52:27.039Z,100062.78
2023-07-20T10:55:19.421Z,100059.72
2023-07-20T10:58:12.994Z,100056.59
2023-07-20T11:01:04.576Z,100063.59
2023-07-20T11:03:54.365Z,100064.78
2023-07-20T11:06:46.262Z,100062.78
2023-07-20T11:09:38.033Z,100046.69
2023-07-20T11:12:29.769Z,100050.03
2023-07-20T11:15:18.706Z,100052.84
2023-07-20T11:18:17.206Z,100052.84
2023-07-20T11:21:07.482Z,100048.66
2023-07-20T11:23:58.056Z,100045.31
2023-07-20T11:26:47.889Z,100048.38
2023-07-20T11:29:38.597Z,100039.13
2023-07-20T11:32:28.329Z,100041.94
2023-07-20T11:35:16.972Z,100043.16
2023-07-20T11:38:06.441Z,100043.25
2023-07-20T11:41:01.321Z,100040.59
2023-07-20T11:43:50.591Z,100041.75
2023-07-20T11:46:41.558Z,100037.81
2023-07-20T11:49:31.755Z,100038.84
2023-07-20T11:52:21.795Z,100040.69
2023-07-20T11:55:11.104Z,100041.44
2023-07-20T11:58:06.922Z,100037.69
2023-07-20T12:00:58.719Z,100045.75
2023-07-20T12:03:51.569Z,100041.44
2023-07-20T12:06:40.248Z,100044.84
2023-07-20T12:09:41.670Z,100050.13
2023-07-20T12:12:35.009Z,100048.03
2023-07-20T12:15:25.077Z,100056.75
2023-07-20T12:18:13.992Z,100057.19
2023-07-20T12:21:05.549Z,100048.06
2023-07-20T12:23:54.600Z,100058.50
2023-07-20T12:26:43.374Z,100064.34
2023-07-20T12:29:33.348Z,100067.31
2023-07-20T12:32:22.349Z,100068.97
2023-07-20T12:35:12.633Z,100075.38
2023-07-20T12:38:03.423Z,100075.66
2023-07-20T12:40:52.157Z,100086.03
2023-07-20T12:43:41.187Z,100077.44
2023-07-20T12:46:30.461Z,100087.00
2023-07-20T12:49:19.158Z,100082.47
2023-07-20T12:52:09.381Z,100093.69
2023-07-20T12:54:59.960Z,100091.69
2023-07-20T12:57:49.045Z,100096.31
2023-07-20T13:00:37.970Z,100096.13
2023-07-20T13:09:09.778Z,100087.47
2023-07-20T13:11:59.776Z,100075.09
2023-07-20T13:14:48.420Z,100068.84
2023-07-20T13:17:37.824Z,100064.28
2023-07-20T13:20:27.028Z,100077.38
2023-07-20T13:23:15.901Z,100065.34
2023-07-20T13:26:04.707Z,100067.16
2023-07-20T13:28:56.220Z,100064.81
2023-07-20T13:31:45.798Z,100055.66
2023-07-20T13:34:34.599Z,100053.59
2023-07-20T13:37:23.297Z,100054.88
2023-07-20T13:40:14.565Z,100056.47
2023-07-20T13:43:03.456Z,100050.66
2023-07-20T13:45:53.611Z,100058.25
2023-07-20T13:48:42.361Z,100055.94
2023-07-20T13:51:31.209Z,100055.41
2023-07-20T13:57:11.693Z,100060.28
2023-07-20T14:00:01.433Z,100059.59
2023-07-20T14:08:36.713Z,100074.53
2023-07-20T14:14:17.574Z,100067.06
2023-07-20T14:17:06.613Z,100068.47
2023-07-20T14:19:57.203Z,100062.13
2023-07-20T14:22:46.310Z,100064.06
2023-07-20T14:25:38.176Z,100071.84
2023-07-20T14:28:27.277Z,100076.41
2023-07-20T14:31:16.040Z,100078.47
2023-07-20T14:34:04.773Z,100072.47
2023-07-20T14:36:54.889Z,100085.56
2023-07-20T14:39:43.638Z,100092.16
2023-07-20T14:42:33.341Z,100093.41
2023-07-20T14:45:22.071Z,100089.53
2023-07-20T14:48:10.997Z,100084.31
2023-07-20T14:53:52.745Z,100076.91
2023-07-20T14:56:42.034Z,100070.69
2023-07-20T14:59:30.747Z,100073.56
2023-07-20T15:02:19.572Z,100068.66
2023-07-20T15:05:10.297Z,100061.88
2023-07-20T15:07:59.056Z,100055.13
2023-07-20T15:10:49.126Z,100055.91
2023-07-20T15:13:37.810Z,100055.13
2023-07-20T15:16:27.127Z,100056.09
2023-07-20T15:19:17.117Z,100049.72
2023-07-20T15:22:07.443Z,100047.28
2023-07-20T15:24:56.548Z,100049.53
2023-07-20T15:27:50.135Z,100043.13
2023-07-20T15:33:31.486Z,100040.75
2023-07-20T15:36:20.105Z,100040.09
2023-07-20T15:39:08.809Z,100044.22
2023-07-20T15:41:58.283Z,100043.56
2023-07-20T15:44:50.223Z,100039.91
2023-07-20T15:47:38.998Z,100038.88
2023-07-20T15:50:28.178Z,100045.03
2023-07-20T15:53:16.856Z,100037.16
2023-07-20T15:56:05.883Z,100036.56
2023-07-20T15:58:54.625Z,100033.91
2023-07-20T16:01:46.555Z,100042.72
2023-07-20T16:04:35.652Z,100034.03
2023-07-20T16:07:24.271Z,100037.75
2023-07-20T16:10:13.345Z,100035.84
2023-07-20T16:13:04.179Z,100035.78
2023-07-20T16:15:54.479Z,100032.41
2023-07-20T16:18:44.803Z,100034.81
2023-07-20T16:21:34.207Z,100041.38
2023-07-20T16:24:24.557Z,100045.91
2023-07-20T16:27:13.323Z,100049.25
2023-07-20T16:30:02.647Z,100043.03
2023-07-20T16:32:52.000Z,100038.94
2023-07-20T16:38:43.171Z,100040.09
2023-07-20T16:44:23.812Z,100031.28
2023-07-20T16:47:12.529Z,100032.31
2023-07-20T16:50:01.326Z,100029.91
2023-07-20T16:52:51.460Z,100020.19
2023-07-20T16:55:42.013Z,100031.00
2023-07-20T16:58:30.881Z,100027.56
2023-07-20T17:01:20.019Z,100025.09
2023-07-20T17:04:08.925Z,100024.88
2023-07-20T17:06:59.648Z,100025.19
2023-07-20T17:09:50.642Z,100033.66
2023-07-20T17:12:40.816Z,100022.63
2023-07-20T17:15:29.505Z,100019.66
2023-07-20T17:18:19.804Z,100026.44
2023-07-20T17:21:08.696Z,100024.88
2023-07-20T17:27:18.438Z,100030.69
2023-07-20T17:30:00.122Z,100020.88
2023-07-20T17:32:48.891Z,100021.25
2023-07-20T17:35:37.658Z,100022.50
2023-07-20T17:41:18.237Z,100014.31
2023-07-20T17:44:09.367Z,100015.38
2023-07-20T17:49:49.664Z,100013.56
2023-07-20T17:52:38.318Z,100013.56
2023-07-20T17:55:27.544Z,100015.22
2023-07-20T17:58:16.256Z,100010.44
2023-07-20T18:01:06.430Z,100018.94
2023-07-20T18:03:55.185Z,100016.84
2023-07-20T18:06:43.969Z,100016.84
2023-07-20T18:09:32.727Z,100010.09
2023-07-20T18:12:21.459Z,100001.03
2023-07-20T18:15:10.854Z,99999.13
2023-07-20T18:18:01.217Z,99998.06
2023-07-20T18:20:50.090Z,100001.22
2023-07-20T18:23:38.825Z,100006.16
2023-07-20T18:26:27.635Z,100005.38
2023-07-20T18:29:19.061Z,100001.03
2023-07-20T18:32:08.722Z,99996.69
2023-07-20T18:35:02.865Z,100002.06
2023-07-20T18:37:51.609Z,99998.78
2023-07-20T18:40:41.115Z,99996.34
2023-07-20T18:43:30.118Z,99996.34
2023-07-20T18:46:19.398Z,100001.22
2023-07-20T18:49:08.132Z,100004.16
2023-07-20T18:51:58.726Z,100007.41
2023-07-20T18:54:47.368Z,100011.69
2023-07-20T18:57:36.445Z,100011.31
2023-07-20T19:00:25.207Z,100014.66
2023-07-20T19:03:14.113Z,100007.09
2023-07-20T19:06:03.452Z,100010.16
2023-07-20T19:08:54.144Z,100003.16
2023-07-20T19:14:34.674Z,100011.31
2023-07-20T19:17:26.165Z,100023.09
2023-07-20T19:20:16.556Z,100024.72
2023-07-20T19:23:05.418Z,100028.78
2023-07-20T19:25:55.839Z,100035.78
2023-07-20T19:28:44.708Z,100037.78
2023-07-20T19:31:33.397Z,100047.22
2023-07-20T19:34:22.086Z,100052.50
2023-07-20T19:37:11.922Z,100050.94
2023-07-20T19:40:01.860Z,100050.72
2023-07-20T19:42:52.134Z,100054.38
2023-07-20T19:45:40.821Z,100055.25
2023-07-20T19:48:29.456Z,100055.44
2023-07-20T19:51:18.233Z,100051.53
2023-07-20T19:56:59.254Z,100055.59
2023-07-20T19:59:49.609Z,100054.38
2023-07-20T20:05:31.103Z,100052.72
2023-07-20T20:08:19.817Z,100054.38
2023-07-20T20:14:00.082Z,100069.28
2023-07-20T20:16:50.177Z,100066.59
2023-07-20T20:19:38.985Z,100070.44
2023-07-20T20:22:27.847Z,100065.97
2023-07-20T20:25:16.743Z,100074.63
2023-07-20T20:28:05.654Z,100074.19
2023-07-20T20:30:54.925Z,100071.94
2023-07-20T20:33:45.026Z,100072.13
2023-07-20T20:36:33.787Z,100071.94
2023-07-20T20:39:22.552Z,100068.06
2023-07-20T20:42:12.133Z,100076.09
2023-07-20T20:45:00.809Z,100074.19
2023-07-20T20:47:49.767Z,100076.84
2023-07-20T20:50:48.247Z,100076.25
2023-07-20T20:53:37.082Z,100074.00
2023-07-20T20:56:27.308Z,100076.19
2023-07-20T20:59:20.816Z,100081.19
2023-07-20T21:02:10.532Z,100087.22
2023-07-20T21:04:59.606Z,100084.13
2023-07-20T21:08:04.981Z,100070.72
2023-07-20T21:10:54.556Z,100081.63
2023-07-20T21:13:43.325Z,100082.81
2023-07-20T21:16:32.092Z,100075.34
2023-07-20T21:19:21.287Z,100079.53
2023-07-20T21:22:10.104Z,100079.16
2023-07-20T21:25:00.188Z,100089.50
2023-07-20T21:27:48.921Z,100080.41
2023-07-20T21:30:38.381Z,100080.84
2023-07-20T21:33:27.097Z,100086.06
2023-07-20T21:36:15.949Z,100088.13
2023-07-20T21:39:04.970Z,100089.78
2023-07-20T21:41:55.155Z,100089.00
2023-07-20T21:44:45.946Z,100090.03
2023-07-20T21:47:34.790Z,100091.34
2023-07-20T21:50:23.446Z,100090.94
2023-07-20T21:53:12.119Z,100086.19
2023-07-20T21:56:00.873Z,100089.31
2023-07-20T21:58:50.908Z,100093.56
2023-07-20T22:04:31.284Z,100094.03
2023-07-20T22:07:21.174Z,100087.22
2023-07-20T22:10:10.520Z,100080.50
2023-07-20T22:13:01.691Z,100085.13
2023-07-20T22:15:52.573Z,100090.81
2023-07-20T22:18:41.653Z,100087.91
2023-07-20T22:21:30.439Z,100080.09
2023-07-20T22:24:19.163Z,100078.47
2023-07-20T22:27:10.055Z,100078.47
2023-07-20T22:29:59.245Z,100077.25
2023-07-20T22:32:49.316Z,100076.88
2023-07-20T22:35:40.470Z,100078.19
2023-07-20T22:38:29.200Z,100072.59
2023-07-20T22:41:17.923Z,100073.72
2023-07-20T22:44:06.684Z,100076.63
2023-07-20T22:46:55.637Z,100077.66
2023-07-20T22:49:45.961Z,100072.47
2023-07-20T22:52:34.852Z,100068.59
2023-07-20T22:55:23.685Z,100064.63
2023-07-20T22:58:12.390Z,100062.63
2023-07-20T23:01:01.153Z,100063.81
2023-07-20T23:03:50.045Z,100063.06
2023-07-20T23:06:40.230Z,100059.34
2023-07-20T23:09:29.095Z,100064.22
2023-07-20T23:12:17.814Z,100068.34
2023-07-20T23:15:07.728Z,100070.44
2023-07-20T23:17:59.872Z,100071.09
2023-07-20T23:20:49.910Z,100069.25
2023-07-20T23:23:40.138Z,100065.13
2023-07-20T23:26:29.319Z,100062.13
2023-07-20T23:29:18.241Z,100054.28
2023-07-20T23:32:07.947Z,100064.53
2023-07-20T23:34:56.737Z,100052.34
2023-07-20T23:37:48.183Z,100057.94
2023-07-20T23:40:38.250Z,100053.22
2023-07-20T23:43:26.890Z,100061.97
2023-07-20T23:46:24.168Z,100048.78
2023-07-20T23:49:15.108Z,100049.63
2023-07-20T23:52:03.814Z,100055.59
2023-07-20T23:54:52.489Z,100056.63
2023-07-20T23:57:44.852Z,100056.97
